Time;durP1;ratioP1;P1;durP2;ratioP2;P2;SDS_P1;SDS_P2;PMS_P1;PMS_P2;Temp;Humidity;BMP_temperature;BMP_pressure;BME280_temperature;BME280_humidity;BME280_pressure;Samples;Min_cycle;Max_cycle;Signal;HPM_P1;HPM_P2
2022/09/29 00:01:42;;;;;;;13.77;9.50;;;;;;;;;;5032361;28;20970;-44
2022/09/29 00:04:08;;;;;;;15.53;10.30;;;;;;;;;;5032844;28;20483;-45
2022/09/29 00:06:34;;;;;;;11.20;9.90;;;;;;;;;;5032555;28;20888;-45
2022/09/29 00:09:00;;;;;;;15.50;11.13;;;;;;;;;;5032896;28;20461;-45
2022/09/29 00:11:26;;;;;;;15.03;10.40;;;;;;;;;;5032117;28;20914;-45
2022/09/29 00:13:52;;;;;;;14.83;10.70;;;;;;;;;;5032666;28;20899;-45
2022/09/29 00:16:18;;;;;;;15.20;10.17;;;;;;;;;;5032538;28;20403;-46
2022/09/29 00:18:44;;;;;;;12.00;9.73;;;;;;;;;;5032515;28;20423;-44
2022/09/29 00:21:11;;;;;;;13.53;11.00;;;;;;;;;;5031843;28;20403;-45
2022/09/29 00:23:37;;;;;;;12.50;10.00;;;;;;;;;;5031815;28;20899;-46
2022/09/29 00:26:11;;;;;;;14.17;10.63;;;;;;;;;;5032417;28;20411;-45
2022/09/29 00:28:38;;;;;;;14.90;10.67;;;;;;;;;;5032088;28;20467;-44
2022/09/29 00:31:05;;;;;;;12.60;10.37;;;;;;;;;;5031714;28;20400;-44
2022/09/29 00:33:32;;;;;;;18.80;11.00;;;;;;;;;;5032313;28;20406;-44
2022/09/29 00:36:17;;;;;;;13.97;10.20;;;;;;;;;;5032146;28;20417;-45
2022/09/29 00:38:45;;;;;;;16.13;10.33;;;;;;;;;;5032222;28;20447;-45
2022/09/29 00:41:16;;;;;;;11.80;9.50;;;;;;;;;;5031604;28;20465;-44
2022/09/29 00:43:47;;;;;;;15.70;10.73;;;;;;;;;;5032142;28;20407;-45
2022/09/29 00:46:16;;;;;;;12.77;11.30;;;;;;;;;;5032042;28;20419;-44
2022/09/29 00:48:43;;;;;;;14.10;10.77;;;;;;;;;;5031801;28;20819;-46
2022/09/29 00:51:09;;;;;;;14.33;9.47;;;;;;;;;;5031432;28;20772;-45
2022/09/29 00:53:35;;;;;;;15.07;10.90;;;;;;;;;;5031974;28;20914;-45
2022/09/29 00:56:04;;;;;;;13.83;11.20;;;;;;;;;;5032015;28;20399;-45
2022/09/29 00:58:36;;;;;;;14.53;12.13;;;;;;;;;;5031837;28;20919;-45
2022/09/29 01:01:03;;;;;;;16.47;12.30;;;;;;;;;;5030761;28;20438;-45
2022/09/29 01:03:32;;;;;;;14.50;10.67;;;;;;;;;;5031250;28;20800;-45
2022/09/29 01:06:01;;;;;;;19.60;12.97;;;;;;;;;;5031415;28;20409;-45
2022/09/29 01:08:38;;;;;;;15.40;10.83;;;;;;;;;;5031506;28;20455;-45
2022/09/29 01:11:05;;;;;;;16.57;11.90;;;;;;;;;;5031147;28;20504;-45
2022/09/29 01:13:32;;;;;;;16.40;11.97;;;;;;;;;;5031950;28;20398;-45
2022/09/29 01:15:58;;;;;;;20.30;11.90;;;;;;;;;;5031750;28;20439;-44
2022/09/29 01:18:24;;;;;;;15.53;12.00;;;;;;;;;;5031611;28;20432;-45
2022/09/29 01:20:56;;;;;;;14.33;11.33;;;;;;;;;;5031172;28;20408;-44
2022/09/29 01:23:41;;;;;;;15.80;10.77;;;;;;;;;;5031642;28;20399;-45
2022/09/29 01:26:13;;;;;;;20.13;12.07;;;;;;;;;;5031627;28;20473;-46
2022/09/29 01:28:42;;;;;;;15.00;11.77;;;;;;;;;;5031495;28;20482;-45
2022/09/29 01:31:26;;;;;;;11.87;10.17;;;;;;;;;;5031008;28;20947;-45
2022/09/29 01:34:13;;;;;;;15.37;11.30;;;;;;;;;;5032625;28;20406;-45
2022/09/29 01:36:45;;;;;;;15.60;11.23;;;;;;;;;;5028181;28;20411;-45
2022/09/29 01:39:19;;;;;;;13.77;11.03;;;;;;;;;;5035697;28;20399;-45
2022/09/29 01:41:45;;;;;;;16.73;11.57;;;;;;;;;;5035125;28;20409;-45
2022/09/29 01:44:11;;;;;;;15.93;11.67;;;;;;;;;;5035466;28;20402;-45
2022/09/29 01:46:39;;;;;;;17.80;11.60;;;;;;;;;;5035346;28;20757;-45
2022/09/29 01:49:06;;;;;;;18.53;14.13;;;;;;;;;;5035206;28;20451;-46
2022/09/29 01:51:38;;;;;;;17.53;12.73;;;;;;;;;;5034873;28;20403;-45
2022/09/29 01:54:06;;;;;;;21.23;13.43;;;;;;;;;;5035343;28;20789;-45
2022/09/29 01:56:44;;;;;;;17.50;12.93;;;;;;;;;;5035240;28;20992;-45
2022/09/29 01:59:23;;;;;;;18.37;13.10;;;;;;;;;;5035006;28;20410;-45
2022/09/29 02:01:51;;;;;;;16.67;13.23;;;;;;;;;;5034765;28;20412;-44
2022/09/29 02:04:25;;;;;;;18.87;13.57;;;;;;;;;;5035159;28;20876;-45
2022/09/29 02:06:56;;;;;;;16.57;12.30;;;;;;;;;;5035123;28;20477;-44
2022/09/29 02:09:24;;;;;;;23.30;14.90;;;;;;;;;;5034790;28;20891;-45
2022/09/29 02:11:52;;;;;;;19.43;13.47;;;;;;;;;;5034549;28;20538;-45
2022/09/29 02:14:28;;;;;;;20.40;13.77;;;;;;;;;;5034915;28;20407;-44
2022/09/29 02:16:57;;;;;;;21.17;13.00;;;;;;;;;;5034747;28;20410;-44
2022/09/29 02:19:29;;;;;;;20.37;13.37;;;;;;;;;;5034630;28;20430;-45
2022/09/29 02:21:55;;;;;;;20.00;13.33;;;;;;;;;;5034301;28;20411;-45
2022/09/29 02:24:21;;;;;;;20.23;13.90;;;;;;;;;;5034688;28;20406;-44
2022/09/29 02:26:48;;;;;;;17.83;13.00;;;;;;;;;;5034629;28;20963;-45
2022/09/29 02:29:15;;;;;;;19.93;13.50;;;;;;;;;;5034502;28;20454;-45
2022/09/29 02:31:41;;;;;;;23.10;13.33;;;;;;;;;;5033985;28;20402;-44
2022/09/29 02:34:09;;;;;;;19.33;13.60;;;;;;;;;;5034602;28;20396;-45
2022/09/29 02:36:35;;;;;;;16.43;13.07;;;;;;;;;;5034331;28;20404;-45
2022/09/29 02:39:20;;;;;;;17.70;13.03;;;;;;;;;;5034437;28;20403;-45
2022/09/29 02:41:52;;;;;;;21.23;14.00;;;;;;;;;;5034000;28;20949;-45
2022/09/29 02:44:36;;;;;;;20.63;13.50;;;;;;;;;;5034367;28;20401;-45
2022/09/29 02:47:02;;;;;;;24.80;14.80;;;;;;;;;;5033395;28;20865;-45
2022/09/29 02:49:34;;;;;;;22.33;12.97;;;;;;;;;;5033949;28;20543;-44
2022/09/29 02:52:07;;;;;;;22.10;14.27;;;;;;;;;;5032786;28;20399;-45
2022/09/29 02:54:38;;;;;;;23.60;14.43;;;;;;;;;;5034177;28;20936;-45
2022/09/29 02:57:04;;;;;;;18.97;14.10;;;;;;;;;;5034168;28;20426;-45
2022/09/29 02:59:49;;;;;;;23.43;15.50;;;;;;;;;;5033810;28;20408;-46
2022/09/29 03:02:15;;;;;;;19.43;14.73;;;;;;;;;;5033522;28;20514;-45
2022/09/29 03:04:41;;;;;;;20.90;14.20;;;;;;;;;;5033888;28;20983;-45
2022/09/29 03:07:07;;;;;;;19.57;13.00;;;;;;;;;;5034213;28;20514;-45
2022/09/29 03:09:33;;;;;;;20.53;14.50;;;;;;;;;;5033524;28;20464;-45
2022/09/29 03:11:59;;;;;;;21.00;13.50;;;;;;;;;;5033425;28;20428;-45
2022/09/29 03:14:25;;;;;;;21.27;15.10;;;;;;;;;;5033741;28;20396;-45
2022/09/29 03:16:51;;;;;;;22.30;14.27;;;;;;;;;;5033684;28;20480;-44
2022/09/29 03:19:17;;;;;;;25.00;15.43;;;;;;;;;;5033567;28;20442;-45
2022/09/29 03:21:43;;;;;;;23.20;14.30;;;;;;;;;;5033178;28;20404;-45
2022/09/29 03:24:09;;;;;;;26.90;15.37;;;;;;;;;;5033682;28;20401;-45
2022/09/29 03:26:35;;;;;;;22.97;13.77;;;;;;;;;;5033452;28;20419;-45
2022/09/29 03:29:01;;;;;;;20.30;14.17;;;;;;;;;;5033407;28;20560;-45
2022/09/29 03:31:27;;;;;;;21.10;14.77;;;;;;;;;;5032909;28;20402;-44
2022/09/29 03:33:53;;;;;;;20.40;14.17;;;;;;;;;;5033401;28;20405;-45
2022/09/29 03:36:19;;;;;;;21.20;14.40;;;;;;;;;;5033400;28;20405;-44
2022/09/29 03:38:46;;;;;;;17.40;13.03;;;;;;;;;;5033209;28;20418;-44
2022/09/29 03:41:12;;;;;;;22.90;14.73;;;;;;;;;;5032748;28;21005;-45
2022/09/29 03:43:38;;;;;;;22.27;13.20;;;;;;;;;;5033251;28;20439;-45
2022/09/29 03:46:04;;;;;;;23.40;15.03;;;;;;;;;;5033132;28;20411;-45
2022/09/29 03:48:30;;;;;;;21.23;15.33;;;;;;;;;;5032822;28;20459;-45
2022/09/29 03:50:56;;;;;;;19.47;14.43;;;;;;;;;;5031508;28;20490;-45
2022/09/29 03:53:22;;;;;;;22.30;13.97;;;;;;;;;;5033078;28;20400;-45
2022/09/29 03:55:49;;;;;;;19.70;13.57;;;;;;;;;;5033043;28;20412;-45
2022/09/29 03:58:16;;;;;;;25.13;13.67;;;;;;;;;;5031772;28;20438;-45
2022/09/29 04:00:41;;;;;;;20.17;14.00;;;;;;;;;;5032299;28;20400;-45
2022/09/29 04:03:08;;;;;;;18.73;13.03;;;;;;;;;;5032870;28;20546;-45
2022/09/29 04:05:37;;;;;;;20.40;14.17;;;;;;;;;;5032817;28;20404;-45
2022/09/29 04:08:04;;;;;;;20.67;13.97;;;;;;;;;;5032620;28;20469;-45
2022/09/29 04:10:30;;;;;;;19.03;13.43;;;;;;;;;;5032062;28;20525;-44
2022/09/29 04:12:56;;;;;;;20.67;14.53;;;;;;;;;;5032613;28;20405;-45
2022/09/29 04:15:22;;;;;;;19.73;14.30;;;;;;;;;;5032541;28;20400;-45
2022/09/29 04:17:48;;;;;;;20.00;13.17;;;;;;;;;;5032424;28;20465;-46
2022/09/29 04:20:14;;;;;;;26.60;15.40;;;;;;;;;;5032392;28;20403;-45
2022/09/29 04:22:40;;;;;;;17.73;13.53;;;;;;;;;;5032124;28;20430;-46
2022/09/29 04:25:06;;;;;;;20.77;13.53;;;;;;;;;;5032539;28;20615;-44
2022/09/29 04:27:32;;;;;;;19.93;14.40;;;;;;;;;;5032267;28;20800;-45
2022/09/29 04:29:58;;;;;;;18.83;12.87;;;;;;;;;;5032049;28;20482;-45
2022/09/29 04:32:24;;;;;;;21.63;14.20;;;;;;;;;;5032125;28;20467;-45
2022/09/29 04:34:50;;;;;;;22.17;14.00;;;;;;;;;;5032365;28;20399;-45
2022/09/29 04:37:16;;;;;;;21.10;13.90;;;;;;;;;;5032294;28;20426;-45
2022/09/29 04:39:42;;;;;;;17.83;13.70;;;;;;;;;;5032060;28;20408;-45
2022/09/29 04:42:08;;;;;;;21.50;14.77;;;;;;;;;;5031745;28;20404;-45
2022/09/29 04:44:34;;;;;;;19.57;13.50;;;;;;;;;;5032065;28;20535;-45
2022/09/29 04:47:00;;;;;;;20.27;14.60;;;;;;;;;;5032232;28;20510;-45
2022/09/29 04:49:26;;;;;;;20.40;13.63;;;;;;;;;;5031987;28;20481;-44
2022/09/29 04:51:52;;;;;;;22.60;14.47;;;;;;;;;;5031614;28;20510;-44
2022/09/29 04:54:18;;;;;;;19.10;13.90;;;;;;;;;;5032066;28;20547;-44
2022/09/29 04:56:44;;;;;;;24.70;14.83;;;;;;;;;;5031447;28;20409;-44
2022/09/29 04:59:10;;;;;;;27.93;14.30;;;;;;;;;;5031885;28;20404;-45
2022/09/29 05:01:36;;;;;;;22.07;14.87;;;;;;;;;;5031366;28;20404;-45
2022/09/29 05:04:02;;;;;;;22.20;13.73;;;;;;;;;;5031970;28;20763;-44
2022/09/29 05:06:28;;;;;;;20.27;14.77;;;;;;;;;;5031729;28;20419;-45
2022/09/29 05:08:54;;;;;;;21.95;13.35;;;;;;;;;;5031405;28;20450;-44
2022/09/29 05:11:20;;;;;;;21.33;14.30;;;;;;;;;;5031172;28;20164;-45
2022/09/29 05:13:49;;;;;;;19.87;13.97;;;;;;;;;;5031775;28;20400;-45
2022/09/29 05:16:15;;;;;;;18.40;13.60;;;;;;;;;;5031804;28;20444;-44
2022/09/29 05:18:41;;;;;;;17.90;14.03;;;;;;;;;;5031641;28;20455;-45
2022/09/29 05:21:08;;;;;;;22.00;14.70;;;;;;;;;;5031223;28;20406;-44
2022/09/29 05:23:34;;;;;;;26.03;14.87;;;;;;;;;;5031688;28;20422;-45
2022/09/29 05:26:04;;;;;;;19.70;14.07;;;;;;;;;;5031594;28;20412;-44
2022/09/29 05:28:30;;;;;;;20.50;13.37;;;;;;;;;;5031852;28;20450;-45
2022/09/29 05:31:01;;;;;;;23.60;14.63;;;;;;;;;;5041716;28;20464;-45
2022/09/29 05:33:26;;;;;;;20.13;14.40;;;;;;;;;;5051472;28;20430;-44
2022/09/29 05:35:52;;;;;;;20.13;15.60;;;;;;;;;;5051513;28;20402;-45
2022/09/29 05:38:19;;;;;;;24.07;15.43;;;;;;;;;;5051220;28;20426;-45
2022/09/29 05:40:45;;;;;;;21.70;13.90;;;;;;;;;;5051129;28;20418;-45
2022/09/29 05:43:11;;;;;;;22.77;14.20;;;;;;;;;;5051649;28;20405;-44
2022/09/29 05:45:37;;;;;;;22.40;14.70;;;;;;;;;;5051997;28;20407;-44
2022/09/29 05:48:03;;;;;;;24.50;14.67;;;;;;;;;;5051306;28;20414;-45
2022/09/29 05:50:30;;;;;;;20.70;13.60;;;;;;;;;;5050737;28;20450;-44
2022/09/29 05:53:01;;;;;;;18.53;14.77;;;;;;;;;;5051223;28;20397;-45
2022/09/29 05:55:27;;;;;;;20.50;13.60;;;;;;;;;;5051379;28;20816;-45
2022/09/29 05:57:54;;;;;;;22.90;14.37;;;;;;;;;;5051128;28;20426;-45
2022/09/29 06:00:20;;;;;;;20.97;14.87;;;;;;;;;;5051019;28;20763;-44
2022/09/29 06:02:46;;;;;;;23.00;15.10;;;;;;;;;;5049960;28;20425;-45
2022/09/29 06:05:12;;;;;;;22.47;14.90;;;;;;;;;;5041957;28;20437;-45
2022/09/29 06:07:38;;;;;;;22.03;14.47;;;;;;;;;;5031064;28;20427;-45
2022/09/29 06:10:04;;;;;;;21.33;15.00;;;;;;;;;;5029355;28;20456;-45
2022/09/29 06:12:34;;;;;;;25.27;16.13;;;;;;;;;;5030162;28;20403;-45
2022/09/29 06:15:00;;;;;;;23.07;14.03;;;;;;;;;;5031409;28;20875;-45
2022/09/29 06:17:25;;;;;;;19.30;13.60;;;;;;;;;;5029825;28;20441;-45
2022/09/29 06:19:52;;;;;;;21.40;13.50;;;;;;;;;;5030725;28;20499;-45
2022/09/29 06:22:19;;;;;;;18.60;14.30;;;;;;;;;;5033371;28;20410;-44
2022/09/29 06:24:45;;;;;;;21.20;14.30;;;;;;;;;;5034904;28;20414;-46
2022/09/29 06:27:11;;;;;;;17.43;13.53;;;;;;;;;;5034585;28;20427;-44
2022/09/29 06:29:37;;;;;;;16.90;12.33;;;;;;;;;;5034666;28;20491;-44
2022/09/29 06:32:03;;;;;;;21.30;12.63;;;;;;;;;;5034203;28;20404;-45
2022/09/29 06:34:29;;;;;;;16.00;12.93;;;;;;;;;;5034540;28;20401;-44
2022/09/29 06:39:39;;;;;;;21.17;13.70;;;;;;;;;;5034548;28;20399;-45
2022/09/29 06:42:05;;;;;;;17.67;12.77;;;;;;;;;;5033988;28;20960;-45
2022/09/29 06:44:31;;;;;;;14.17;11.50;;;;;;;;;;5034363;28;20479;-44
2022/09/29 06:46:58;;;;;;;16.57;12.10;;;;;;;;;;5034236;28;20424;-44
2022/09/29 06:49:24;;;;;;;18.47;11.20;;;;;;;;;;5034185;28;20456;-45
2022/09/29 06:51:50;;;;;;;16.37;11.33;;;;;;;;;;5033674;28;20406;-45
2022/09/29 06:54:19;;;;;;;12.27;10.23;;;;;;;;;;5034238;28;20405;-45
2022/09/29 06:56:49;;;;;;;16.63;10.87;;;;;;;;;;5034008;28;20403;-45
2022/09/29 06:59:15;;;;;;;12.33;9.20;;;;;;;;;;5034076;28;20428;-44
2022/09/29 07:01:41;;;;;;;11.23;10.03;;;;;;;;;;5033221;28;20412;-45
2022/09/29 07:04:07;;;;;;;14.20;10.37;;;;;;;;;;5034102;28;20954;-44
2022/09/29 07:06:33;;;;;;;12.03;9.90;;;;;;;;;;5034060;28;20474;-45
2022/09/29 07:09:00;;;;;;;10.93;9.77;;;;;;;;;;5033750;28;20454;-45
2022/09/29 07:11:26;;;;;;;13.80;8.87;;;;;;;;;;5033273;28;20881;-45
2022/09/29 07:13:52;;;;;;;14.53;8.73;;;;;;;;;;5034028;28;20399;-44
2022/09/29 07:16:22;;;;;;;11.63;10.27;;;;;;;;;;5033737;28;20406;-45
2022/09/29 07:18:48;;;;;;;9.27;8.27;;;;;;;;;;5033618;28;20501;-45
2022/09/29 07:21:18;;;;;;;9.10;8.10;;;;;;;;;;5033114;28;20453;-44
2022/09/29 07:23:45;;;;;;;11.63;7.30;;;;;;;;;;5033657;28;20881;-45
2022/09/29 07:26:11;;;;;;;8.60;7.83;;;;;;;;;;5033569;28;20875;-46
2022/09/29 07:28:38;;;;;;;8.40;7.53;;;;;;;;;;5032809;28;20603;-46
2022/09/29 07:31:03;;;;;;;8.00;7.20;;;;;;;;;;5052527;28;20406;-46
2022/09/29 07:33:30;;;;;;;7.60;6.80;;;;;;;;;;5053082;28;20597;-45
2022/09/29 07:35:59;;;;;;;7.67;6.90;;;;;;;;;;5053187;28;20410;-46
2022/09/29 07:38:25;;;;;;;8.20;7.40;;;;;;;;;;5053023;28;20424;-45
2022/09/29 07:40:51;;;;;;;8.13;7.37;;;;;;;;;;5052483;28;20415;-45
2022/09/29 07:43:17;;;;;;;7.80;6.80;;;;;;;;;;5053008;28;20403;-46
2022/09/29 07:45:49;;;;;;;8.50;7.60;;;;;;;;;;5052841;28;20406;-45
2022/09/29 07:48:16;;;;;;;8.53;7.60;;;;;;;;;;5052742;28;20424;-46
2022/09/29 07:50:42;;;;;;;8.30;7.50;;;;;;;;;;5052249;28;20396;-45
2022/09/29 07:53:09;;;;;;;12.40;7.50;;;;;;;;;;5052761;28;20409;-45
2022/09/29 07:55:35;;;;;;;9.07;7.43;;;;;;;;;;5052751;28;20456;-45
2022/09/29 07:58:01;;;;;;;9.10;7.30;;;;;;;;;;5052657;28;20431;-45
2022/09/29 08:00:30;;;;;;;7.33;6.63;;;;;;;;;;5052727;28;20456;-47
2022/09/29 08:03:01;;;;;;;7.60;6.80;;;;;;;;;;5052737;28;20428;-45
2022/09/29 08:05:27;;;;;;;8.50;7.70;;;;;;;;;;5053151;28;20734;-45
2022/09/29 08:07:53;;;;;;;16.47;7.87;;;;;;;;;;5052528;28;20432;-46
2022/09/29 08:10:19;;;;;;;8.60;6.97;;;;;;;;;;5052337;28;20487;-46
2022/09/29 08:12:45;;;;;;;7.83;7.03;;;;;;;;;;5052145;28;20397;-45
2022/09/29 08:15:11;;;;;;;9.93;7.87;;;;;;;;;;5052802;28;20754;-45
2022/09/29 08:17:37;;;;;;;7.50;6.80;;;;;;;;;;5047183;28;20441;-46
2022/09/29 08:20:03;;;;;;;10.87;7.53;;;;;;;;;;5048273;28;20419;-48
2022/09/29 08:22:29;;;;;;;8.37;7.17;;;;;;;;;;5051308;28;20530;-48
2022/09/29 08:24:55;;;;;;;9.03;7.47;;;;;;;;;;5052023;28;20492;-47
2022/09/29 08:27:21;;;;;;;8.23;7.43;;;;;;;;;;5052150;28;20433;-49
2022/09/29 08:29:47;;;;;;;8.43;7.20;;;;;;;;;;5052040;28;20464;-49
2022/09/29 08:32:14;;;;;;;9.27;7.30;;;;;;;;;;5051558;28;20397;-49
2022/09/29 08:34:40;;;;;;;8.27;7.47;;;;;;;;;;5049919;28;20409;-49
2022/09/29 08:37:06;;;;;;;10.73;7.53;;;;;;;;;;5051941;28;20924;-48
2022/09/29 08:39:34;;;;;;;12.53;7.40;;;;;;;;;;5052204;28;20404;-46
2022/09/29 08:42:00;;;;;;;11.23;7.37;;;;;;;;;;5051357;28;20408;-48
2022/09/29 08:44:34;;;;;;;7.77;6.50;;;;;;;;;;5051055;28;20408;-48
2022/09/29 08:47:05;;;;;;;7.37;6.50;;;;;;;;;;5051757;28;20477;-48
2022/09/29 08:49:35;;;;;;;9.77;7.70;;;;;;;;;;5052174;28;20456;-48
2022/09/29 08:52:07;;;;;;;7.60;6.33;;;;;;;;;;5051024;28;20416;-49
2022/09/29 08:54:34;;;;;;;9.03;6.17;;;;;;;;;;5051406;28;20402;-48
2022/09/29 08:57:01;;;;;;;9.07;6.90;;;;;;;;;;5051597;28;20421;-47
2022/09/29 08:59:28;;;;;;;6.10;5.43;;;;;;;;;;5051686;28;20917;-49
2022/09/29 09:01:57;;;;;;;4.83;4.43;;;;;;;;;;5050647;28;20953;-45
2022/09/29 09:04:35;;;;;;;6.43;5.80;;;;;;;;;;5051292;28;20927;-47
2022/09/29 09:07:09;;;;;;;5.57;4.70;;;;;;;;;;5051431;28;20396;-45
2022/09/29 09:09:35;;;;;;;7.33;4.20;;;;;;;;;;5051383;28;20425;-45
2022/09/29 09:12:19;;;;;;;4.50;3.90;;;;;;;;;;5050891;28;20404;-46
2022/09/29 09:15:09;;;;;;;4.73;3.33;;;;;;;;;;5051218;28;20435;-45
2022/09/29 09:17:53;;;;;;;4.80;4.40;;;;;;;;;;5041137;28;20458;-45
2022/09/29 09:20:26;;;;;;;6.33;5.63;;;;;;;;;;5051394;28;20407;-45
2022/09/29 09:22:56;;;;;;;4.67;4.27;;;;;;;;;;5050828;28;20959;-45
2022/09/29 09:25:29;;;;;;;6.53;5.13;;;;;;;;;;5050798;28;20426;-45
2022/09/29 09:28:06;;;;;;;5.57;4.90;;;;;;;;;;5051229;28;20433;-45
2022/09/29 09:30:37;;;;;;;6.27;4.73;;;;;;;;;;5050608;28;20979;-45
2022/09/29 09:33:07;;;;;;;5.00;4.60;;;;;;;;;;5051210;28;20470;-45
2022/09/29 09:35:36;;;;;;;5.83;3.97;;;;;;;;;;5051330;28;20401;-45
2022/09/29 09:38:04;;;;;;;5.13;3.73;;;;;;;;;;5050988;28;20427;-46
2022/09/29 09:40:37;;;;;;;6.37;5.43;;;;;;;;;;5050849;28;20777;-45
2022/09/29 09:43:05;;;;;;;5.37;4.67;;;;;;;;;;5051228;28;20459;-45
2022/09/29 09:45:42;;;;;;;9.43;5.13;;;;;;;;;;5051220;28;20491;-45
2022/09/29 09:48:13;;;;;;;8.10;5.53;;;;;;;;;;5051013;28;20429;-45
2022/09/29 09:50:41;;;;;;;4.07;3.77;;;;;;;;;;5050912;28;20548;-46
2022/09/29 09:53:15;;;;;;;4.63;4.23;;;;;;;;;;5045126;28;20417;-46
2022/09/29 09:55:42;;;;;;;4.70;3.20;;;;;;;;;;5034577;28;20422;-47
2022/09/29 09:58:13;;;;;;;5.03;3.30;;;;;;;;;;5034606;28;20443;-46
2022/09/29 10:00:45;;;;;;;4.90;3.57;;;;;;;;;;5034548;28;21008;-46
2022/09/29 10:03:13;;;;;;;3.07;2.70;;;;;;;;;;5045553;28;20429;-45
2022/09/29 10:05:40;;;;;;;3.37;2.40;;;;;;;;;;5054469;28;20397;-45
2022/09/29 10:08:07;;;;;;;2.53;2.20;;;;;;;;;;5042600;28;20957;-45
2022/09/29 10:10:33;;;;;;;2.73;2.10;;;;;;;;;;5034114;28;20875;-45
2022/09/29 10:13:07;;;;;;;3.77;2.00;;;;;;;;;;5044727;28;20456;-46
2022/09/29 10:15:36;;;;;;;4.00;2.80;;;;;;;;;;5054547;28;20397;-46
2022/09/29 10:18:14;;;;;;;3.20;3.00;;;;;;;;;;5043500;28;20445;-46
2022/09/29 10:20:41;;;;;;;4.93;3.70;;;;;;;;;;5033923;28;20421;-46
2022/09/29 10:23:23;;;;;;;2.80;2.60;;;;;;;;;;5045207;28;20511;-46
2022/09/29 10:26:00;;;;;;;5.53;3.40;;;;;;;;;;5054314;28;20408;-45
2022/09/29 10:28:28;;;;;;;5.30;3.10;;;;;;;;;;5040679;28;20499;-45
2022/09/29 10:30:55;;;;;;;3.77;3.23;;;;;;;;;;5038871;28;20755;-45
2022/09/29 10:33:22;;;;;;;2.90;2.70;;;;;;;;;;5054825;28;20896;-45
2022/09/29 10:35:51;;;;;;;3.00;2.80;;;;;;;;;;5048449;28;20525;-47
2022/09/29 10:38:20;;;;;;;3.60;2.70;;;;;;;;;;5034209;28;20424;-45
2022/09/29 10:40:57;;;;;;;2.63;2.43;;;;;;;;;;5037833;28;20482;-47
2022/09/29 10:43:31;;;;;;;3.97;3.00;;;;;;;;;;5037347;28;20417;-46
2022/09/29 10:45:58;;;;;;;4.83;3.17;;;;;;;;;;5054111;28;20407;-46
2022/09/29 10:48:25;;;;;;;3.87;2.77;;;;;;;;;;5052348;28;20429;-46
2022/09/29 10:50:53;;;;;;;3.00;2.13;;;;;;;;;;5033381;28;20476;-46
2022/09/29 10:53:22;;;;;;;2.50;1.87;;;;;;;;;;5034567;28;20724;-45
2022/09/29 10:55:54;;;;;;;2.60;1.93;;;;;;;;;;5053899;28;20405;-45
2022/09/29 10:58:25;;;;;;;4.40;2.27;;;;;;;;;;5046902;28;20442;-45
2022/09/29 11:01:02;;;;;;;4.50;2.00;;;;;;;;;;5040374;28;20516;-45
2022/09/29 11:03:28;;;;;;;3.53;1.77;;;;;;;;;;5034804;28;20422;-45
2022/09/29 11:05:58;;;;;;;6.30;2.00;;;;;;;;;;5053496;28;20671;-45
2022/09/29 11:08:26;;;;;;;4.30;1.33;;;;;;;;;;5051579;28;20424;-45
2022/09/29 11:11:11;;;;;;;1.83;1.50;;;;;;;;;;5032839;28;20421;-46
2022/09/29 11:13:40;;;;;;;1.87;1.37;;;;;;;;;;5034213;28;20402;-46
2022/09/29 11:16:16;;;;;;;5.70;1.70;;;;;;;;;;5050826;28;20383;-45
2022/09/29 11:18:53;;;;;;;2.30;2.10;;;;;;;;;;5052552;28;20412;-45
2022/09/29 11:21:20;;;;;;;2.60;2.20;;;;;;;;;;5052794;28;20399;-45
2022/09/29 11:23:46;;;;;;;4.00;2.67;;;;;;;;;;5050455;28;20394;-45
2022/09/29 11:26:33;;;;;;;3.77;2.80;;;;;;;;;;5033086;28;20406;-45
2022/09/29 11:28:59;;;;;;;2.73;2.53;;;;;;;;;;5036934;28;20817;-45
2022/09/29 11:31:31;;;;;;;2.67;2.13;;;;;;;;;;5052356;28;20418;-45
2022/09/29 11:34:11;;;;;;;2.30;1.60;;;;;;;;;;5049700;28;20560;-46
2022/09/29 11:36:37;;;;;;;4.30;2.13;;;;;;;;;;5033137;28;20426;-46
2022/09/29 11:39:03;;;;;;;1.93;1.80;;;;;;;;;;5033101;28;20834;-45
2022/09/29 11:41:47;;;;;;;2.50;2.00;;;;;;;;;;5034219;28;21245;-46
2022/09/29 11:44:26;;;;;;;2.13;1.57;;;;;;;;;;5053791;28;20415;-44
2022/09/29 11:47:01;;;;;;;1.83;1.67;;;;;;;;;;5051234;28;20520;-45
2022/09/29 11:49:54;;;;;;;2.93;1.50;;;;;;;;;;5052880;28;20456;-44
2022/09/29 11:52:20;;;;;;;4.77;2.03;;;;;;;;;;5041733;28;20418;-44
2022/09/29 11:54:49;;;;;;;2.13;1.87;;;;;;;;;;5032877;28;20414;-45
2022/09/29 11:57:25;;;;;;;2.43;1.80;;;;;;;;;;5041847;28;21036;-44
2022/09/29 12:00:00;;;;;;;6.00;1.90;;;;;;;;;;5052515;28;20401;-45
2022/09/29 12:02:35;;;;;;;3.00;2.00;;;;;;;;;;5041705;28;20783;-44
2022/09/29 12:05:14;;;;;;;1.83;1.60;;;;;;;;;;5032785;28;20463;-48
2022/09/29 12:07:51;;;;;;;2.90;2.00;;;;;;;;;;5044745;28;20534;-44
2022/09/29 12:10:36;;;;;;;2.80;1.37;;;;;;;;;;5051926;28;20451;-47
2022/09/29 12:13:11;;;;;;;3.03;1.90;;;;;;;;;;5037575;28;20422;-45
2022/09/29 12:15:55;;;;;;;2.00;1.53;;;;;;;;;;5036996;28;20419;-44
2022/09/29 12:18:25;;;;;;;3.50;1.97;;;;;;;;;;5033492;28;20438;-44
2022/09/29 12:20:52;;;;;;;1.30;1.20;;;;;;;;;;5031815;28;20393;-43
2022/09/29 12:23:20;;;;;;;5.43;2.40;;;;;;;;;;5050252;28;20425;-46
2022/09/29 12:25:55;;;;;;;3.10;1.53;;;;;;;;;;5052443;28;20429;-44
2022/09/29 12:28:23;;;;;;;4.77;1.50;;;;;;;;;;5034122;28;20452;-45
2022/09/29 12:30:53;;;;;;;3.93;1.67;;;;;;;;;;5031389;28;20466;-45
2022/09/29 12:33:22;;;;;;;2.17;1.47;;;;;;;;;;5049106;28;20425;-44
2022/09/29 12:35:51;;;;;;;2.40;1.90;;;;;;;;;;5041372;28;20882;-44
2022/09/29 12:38:22;;;;;;;3.43;1.40;;;;;;;;;;5031901;28;20417;-44
2022/09/29 12:41:12;;;;;;;2.50;1.47;;;;;;;;;;5046995;28;20524;-44
2022/09/29 12:43:41;;;;;;;2.97;1.90;;;;;;;;;;5041897;28;20418;-44
2022/09/29 12:46:27;;;;;;;2.40;1.47;;;;;;;;;;5032076;28;20464;-49
2022/09/29 12:49:05;;;;;;;1.97;1.50;;;;;;;;;;5046760;28;20460;-44
2022/09/29 12:51:38;;;;;;;1.60;1.50;;;;;;;;;;5051061;28;20494;-44
2022/09/29 12:54:23;;;;;;;34.20;10.60;;;;;;;;;;5039182;28;20428;-44
2022/09/29 12:57:05;;;;;;;2.23;1.40;;;;;;;;;;5031702;28;20978;-45
2022/09/29 12:59:49;;;;;;;8.50;3.90;;;;;;;;;;5032352;28;20882;-45
2022/09/29 13:02:28;;;;;;;2.37;2.00;;;;;;;;;;5048968;28;20481;-44
2022/09/29 13:05:02;;;;;;;3.20;1.87;;;;;;;;;;5048242;28;20472;-44
2022/09/29 13:07:46;;;;;;;5.27;1.80;;;;;;;;;;5031639;28;20960;-44
2022/09/29 13:10:20;;;;;;;1.80;1.57;;;;;;;;;;5036643;28;20992;-44
2022/09/29 13:12:51;;;;;;;4.80;1.60;;;;;;;;;;5034515;28;20421;-44
2022/09/29 13:15:20;;;;;;;3.23;1.30;;;;;;;;;;5051383;28;20432;-43
2022/09/29 13:17:46;;;;;;;1.70;1.40;;;;;;;;;;5041901;28;20467;-47
2022/09/29 13:20:23;;;;;;;8.40;1.73;;;;;;;;;;5049589;28;20421;-47
2022/09/29 13:22:55;;;;;;;1.73;1.27;;;;;;;;;;5040849;28;20421;-45
2022/09/29 13:25:27;;;;;;;5.10;1.87;;;;;;;;;;5048807;28;20428;-44
2022/09/29 13:27:54;;;;;;;2.80;1.60;;;;;;;;;;5045028;28;20544;-46
2022/09/29 13:30:23;;;;;;;5.57;1.50;;;;;;;;;;5051043;28;20503;-44
2022/09/29 13:33:09;;;;;;;2.10;1.77;;;;;;;;;;5052977;28;20428;-46
2022/09/29 13:35:53;;;;;;;1.90;1.80;;;;;;;;;;5033969;28;20422;-47
2022/09/29 13:38:24;;;;;;;2.17;1.97;;;;;;;;;;5035891;28;20536;-47
2022/09/29 13:41:08;;;;;;;3.67;1.90;;;;;;;;;;5035041;28;20426;-47
2022/09/29 13:43:40;;;;;;;2.10;1.63;;;;;;;;;;5034635;28;20617;-47
2022/09/29 13:46:24;;;;;;;1.83;1.37;;;;;;;;;;5040243;28;21037;-49
2022/09/29 13:48:54;;;;;;;3.40;1.33;;;;;;;;;;5055216;28;20828;-47
2022/09/29 13:51:28;;;;;;;2.97;1.53;;;;;;;;;;5054531;28;20405;-47
2022/09/29 13:54:13;;;;;;;4.30;1.73;;;;;;;;;;5049793;28;21183;-47
2022/09/29 13:56:39;;;;;;;5.70;1.50;;;;;;;;;;5049742;28;20958;-47
2022/09/29 13:59:13;;;;;;;1.73;1.30;;;;;;;;;;5054956;28;20420;-48
2022/09/29 14:01:39;;;;;;;2.90;1.47;;;;;;;;;;5054207;28;20405;-48
2022/09/29 14:04:23;;;;;;;1.73;1.47;;;;;;;;;;5054832;28;20757;-46
2022/09/29 14:06:49;;;;;;;10.43;2.03;;;;;;;;;;5054982;28;20963;-47
2022/09/29 14:09:17;;;;;;;1.97;1.37;;;;;;;;;;5054791;28;20456;-46
2022/09/29 14:11:51;;;;;;;9.73;1.50;;;;;;;;;;5054036;28;20885;-46
2022/09/29 14:14:23;;;;;;;2.70;1.60;;;;;;;;;;5054807;28;20394;-46
2022/09/29 14:16:54;;;;;;;2.23;1.73;;;;;;;;;;5054378;28;20435;-47
2022/09/29 14:19:33;;;;;;;1.83;1.53;;;;;;;;;;5054936;28;20893;-47
2022/09/29 14:22:00;;;;;;;7.37;2.77;;;;;;;;;;5054275;28;20405;-46
2022/09/29 14:24:41;;;;;;;2.60;1.37;;;;;;;;;;5054624;28;20538;-48
2022/09/29 14:27:28;;;;;;;1.53;1.20;;;;;;;;;;5054615;28;20424;-48
2022/09/29 14:30:12;;;;;;;2.17;1.80;;;;;;;;;;5054241;28;20463;-47
2022/09/29 14:32:40;;;;;;;2.60;1.70;;;;;;;;;;5054239;28;20473;-47
2022/09/29 14:35:14;;;;;;;3.33;1.60;;;;;;;;;;5054560;28;20405;-47
2022/09/29 14:37:40;;;;;;;1.60;1.50;;;;;;;;;;5054424;28;20424;-47
2022/09/29 14:43:24;;;;;;;1.40;1.30;;;;;;;;;;5053344;28;20443;-48
2022/09/29 14:52:05;;;;;;;2.37;1.73;;;;;;;;;;5053704;28;20439;-48
2022/09/29 14:54:45;;;;;;;5.07;1.57;;;;;;;;;;5054005;28;20401;-47
2022/09/29 14:57:34;;;;;;;2.00;1.37;;;;;;;;;;5053828;28;20914;-46
2022/09/29 15:00:10;;;;;;;1.43;1.33;;;;;;;;;;5053391;28;20902;-44